createdAt,value
2023-07-19T00:00:28.133Z,61.11
2023-07-19T00:02:56.080Z,61.08
2023-07-19T00:05:24.081Z,60.91
2023-07-19T00:07:52.053Z,61.15
2023-07-19T00:10:20.158Z,60.73
2023-07-19T00:12:55.946Z,61.48
2023-07-19T00:15:25.925Z,60.96
2023-07-19T00:17:53.915Z,61.46
2023-07-19T00:20:22.017Z,61.53
2023-07-19T00:22:50.405Z,61.05
2023-07-19T00:25:18.778Z,61.09
2023-07-19T00:27:49.770Z,61.57
2023-07-19T00:30:18.846Z,61.88
2023-07-19T00:32:48.338Z,61.21
2023-07-19T00:35:16.513Z,60.93
2023-07-19T00:37:45.361Z,61.12
2023-07-19T00:40:14.076Z,60.32
2023-07-19T00:42:42.129Z,60.03
2023-07-19T00:45:11.577Z,60.53
2023-07-19T00:47:40.746Z,60.06
2023-07-19T00:50:11.277Z,60.17
2023-07-19T00:52:39.937Z,59.89
2023-07-19T00:55:09.334Z,60.01
2023-07-19T00:57:37.701Z,60.19
2023-07-19T01:00:07.749Z,60.36
2023-07-19T01:02:36.123Z,60.91
2023-07-19T01:05:04.348Z,61.32
2023-07-19T01:07:34.885Z,60.94
2023-07-19T01:10:02.950Z,60.96
2023-07-19T01:12:30.902Z,60.96
2023-07-19T01:14:58.852Z,61.25
2023-07-19T01:17:26.876Z,61.03
2023-07-19T01:19:54.921Z,61.56
2023-07-19T01:22:23.056Z,61.22
2023-07-19T01:24:52.422Z,61.51
2023-07-19T01:27:23.410Z,61.48
2023-07-19T01:29:52.035Z,61.52
2023-07-19T01:32:20.062Z,61.32
2023-07-19T01:34:48.222Z,61.19
2023-07-19T01:37:16.228Z,61.06
2023-07-19T01:39:44.996Z,61.23
2023-07-19T01:42:14.396Z,61.74
2023-07-19T01:44:42.353Z,61.53
2023-07-19T01:47:10.607Z,62.72
2023-07-19T01:49:40.941Z,62.43
2023-07-19T01:52:09.429Z,62.98
2023-07-19T01:54:37.438Z,62.72
2023-07-19T01:57:06.887Z,63.11
2023-07-19T01:59:36.276Z,63.13
2023-07-19T02:02:04.548Z,63.33
2023-07-19T02:04:32.932Z,64.03
2023-07-19T02:07:01.051Z,63.89
2023-07-19T02:09:30.319Z,64.20
2023-07-19T02:11:58.314Z,64.75
2023-07-19T02:14:26.340Z,64.79
2023-07-19T02:16:55.679Z,64.53
2023-07-19T02:19:23.688Z,64.54
2023-07-19T02:21:53.970Z,64.58
2023-07-19T02:24:22.001Z,64.97
2023-07-19T02:26:50.500Z,64.96
2023-07-19T02:29:18.441Z,65.18
2023-07-19T02:31:46.439Z,65.51
2023-07-19T02:34:19.925Z,65.41
2023-07-19T02:36:48.151Z,65.44
2023-07-19T02:39:16.166Z,65.57
2023-07-19T02:41:45.754Z,66.00
2023-07-19T02:44:13.806Z,66.03
2023-07-19T02:46:41.838Z,65.51
2023-07-19T02:49:09.889Z,66.18
2023-07-19T02:51:39.606Z,66.27
2023-07-19T02:54:07.606Z,65.68
2023-07-19T02:56:35.631Z,66.26
2023-07-19T02:59:04.535Z,65.60
2023-07-19T03:01:32.544Z,65.92
2023-07-19T03:04:00.997Z,66.62
2023-07-19T03:06:29.735Z,66.49
2023-07-19T03:08:59.174Z,67.01
2023-07-19T03:11:27.164Z,66.39
2023-07-19T03:13:55.094Z,66.67
2023-07-19T03:16:23.230Z,66.78
2023-07-19T03:18:51.424Z,68.00
2023-07-19T03:21:21.695Z,67.89
2023-07-19T03:23:50.013Z,67.55
2023-07-19T03:26:19.366Z,67.02
2023-07-19T03:28:47.764Z,67.07
2023-07-19T03:31:16.341Z,67.30
2023-07-19T03:33:44.424Z,67.37
2023-07-19T03:36:12.362Z,67.28
2023-07-19T03:38:40.376Z,66.74
2023-07-19T03:41:10.251Z,66.30
2023-07-19T03:43:39.739Z,65.81
2023-07-19T03:46:08.439Z,65.46
2023-07-19T03:48:38.979Z,66.00
2023-07-19T03:51:07.255Z,65.73
2023-07-19T03:53:36.203Z,66.14
2023-07-19T03:56:04.420Z,67.38
2023-07-19T03:58:32.782Z,70.06
2023-07-19T04:01:04.248Z,70.08
2023-07-19T04:03:32.631Z,71.86
2023-07-19T04:06:00.927Z,73.21
2023-07-19T04:08:29.180Z,74.13
2023-07-19T04:10:57.171Z,74.67
2023-07-19T04:13:27.152Z,75.10
2023-07-19T04:15:55.831Z,75.73
2023-07-19T04:18:26.273Z,75.09
2023-07-19T04:20:58.699Z,75.58
2023-07-19T04:23:28.789Z,72.10
2023-07-19T04:25:56.955Z,71.55
2023-07-19T04:28:25.479Z,70.62
2023-07-19T04:30:53.663Z,70.74
2023-07-19T04:33:22.072Z,70.14
2023-07-19T04:35:51.935Z,69.50
2023-07-19T04:38:20.056Z,69.77
2023-07-19T04:40:48.182Z,69.66
2023-07-19T04:43:16.282Z,70.13
2023-07-19T04:45:49.600Z,69.97
2023-07-19T04:48:18.566Z,70.31
2023-07-19T04:50:46.555Z,70.23
2023-07-19T04:53:15.975Z,69.88
2023-07-19T04:55:45.021Z,69.55
2023-07-19T04:58:15.620Z,69.67
2023-07-19T05:00:43.588Z,69.76
2023-07-19T05:03:11.949Z,70.40
2023-07-19T05:05:40.978Z,70.27
2023-07-19T05:08:09.366Z,71.07
2023-07-19T05:10:39.833Z,71.17
2023-07-19T05:13:08.185Z,71.60
2023-07-19T05:15:36.281Z,72.04
2023-07-19T05:18:08.935Z,71.80
2023-07-19T05:20:36.982Z,71.16
2023-07-19T05:23:05.042Z,70.60
2023-07-19T05:25:33.094Z,70.61
2023-07-19T05:28:02.483Z,71.17
2023-07-19T05:30:30.579Z,71.46
2023-07-19T05:32:58.589Z,71.46
2023-07-19T05:35:26.628Z,71.06
2023-07-19T05:37:54.545Z,71.65
2023-07-19T05:40:22.563Z,72.33
2023-07-19T05:42:50.583Z,72.44
2023-07-19T05:45:20.134Z,70.94
2023-07-19T05:47:48.141Z,70.28
2023-07-19T05:50:16.239Z,69.89
2023-07-19T05:52:44.220Z,69.80
2023-07-19T05:55:12.260Z,69.51
2023-07-19T05:57:40.566Z,69.15
2023-07-19T06:00:20.717Z,68.98
2023-07-19T06:02:55.052Z,69.19
2023-07-19T06:05:25.485Z,69.92
2023-07-19T06:07:54.252Z,69.62
2023-07-19T06:10:22.445Z,68.76
2023-07-19T06:12:51.288Z,68.69
2023-07-19T06:15:19.837Z,68.20
2023-07-19T06:17:47.912Z,67.98
2023-07-19T06:20:17.345Z,68.06
2023-07-19T06:22:45.365Z,67.80
2023-07-19T06:25:14.059Z,67.24
2023-07-19T06:27:42.132Z,67.22
2023-07-19T06:30:11.114Z,67.13
2023-07-19T06:32:39.168Z,66.38
2023-07-19T06:35:10.233Z,66.20
2023-07-19T06:37:39.627Z,65.68
2023-07-19T06:40:09.089Z,65.57
2023-07-19T06:42:37.864Z,66.31
2023-07-19T06:45:06.623Z,65.87
2023-07-19T06:47:34.674Z,66.40
2023-07-19T06:50:02.807Z,66.41
2023-07-19T06:52:30.941Z,66.66
2023-07-19T06:55:00.287Z,66.55
2023-07-19T06:57:28.479Z,66.09
2023-07-19T06:59:56.539Z,66.11
2023-07-19T07:02:24.633Z,65.84
2023-07-19T07:04:53.197Z,65.88
2023-07-19T07:07:21.168Z,65.61
2023-07-19T07:09:49.322Z,64.85
2023-07-19T07:12:18.764Z,65.25
2023-07-19T07:14:49.729Z,65.44
2023-07-19T07:17:19.138Z,65.16
2023-07-19T07:19:47.351Z,65.10
2023-07-19T07:22:15.416Z,64.88
2023-07-19T07:24:43.359Z,65.28
2023-07-19T07:27:11.375Z,65.17
2023-07-19T07:29:43.167Z,65.33
2023-07-19T07:32:12.985Z,66.12
2023-07-19T07:34:41.099Z,65.87
2023-07-19T07:37:09.902Z,65.89
2023-07-19T07:39:37.968Z,65.94
2023-07-19T07:42:06.811Z,65.36
2023-07-19T07:44:34.803Z,64.63
2023-07-19T07:47:04.264Z,64.11
2023-07-19T07:49:32.741Z,63.41
2023-07-19T07:52:00.769Z,63.65
2023-07-19T07:54:28.774Z,63.10
2023-07-19T07:56:56.907Z,63.00
2023-07-19T07:59:24.947Z,62.74
2023-07-19T08:01:52.925Z,62.18
2023-07-19T08:04:22.297Z,63.10
2023-07-19T08:06:50.312Z,63.54
2023-07-19T08:09:20.266Z,63.18
2023-07-19T08:11:49.977Z,63.38
2023-07-19T08:14:18.003Z,62.86
2023-07-19T08:16:46.005Z,63.07
2023-07-19T08:19:14.543Z,63.06
2023-07-19T08:21:44.247Z,62.97
2023-07-19T08:24:12.625Z,63.59
2023-07-19T08:26:41.117Z,63.44
2023-07-19T08:29:09.166Z,63.12
2023-07-19T08:31:37.562Z,63.43
2023-07-19T08:34:05.600Z,62.99
2023-07-19T08:36:33.628Z,62.37
2023-07-19T08:39:03.261Z,62.33
2023-07-19T08:41:34.003Z,62.05
2023-07-19T08:44:02.351Z,61.40
2023-07-19T08:46:30.387Z,61.21
2023-07-19T08:48:59.044Z,61.86
2023-07-19T08:51:27.828Z,62.13
2023-07-19T08:53:56.102Z,62.01
2023-07-19T08:56:25.774Z,60.63
2023-07-19T08:58:53.831Z,59.98
2023-07-19T09:01:22.519Z,59.63
2023-07-19T09:03:50.807Z,59.64
2023-07-19T09:06:25.406Z,58.91
2023-07-19T09:08:54.155Z,59.84
2023-07-19T09:11:23.274Z,60.02
2023-07-19T09:13:55.660Z,59.74
2023-07-19T09:16:29.030Z,60.19
2023-07-19T09:18:59.615Z,60.08
2023-07-19T09:21:35.221Z,60.80
2023-07-19T09:24:06.050Z,59.56
2023-07-19T09:26:49.470Z,59.38
2023-07-19T09:29:19.273Z,59.07
2023-07-19T09:31:57.478Z,60.97
2023-07-19T09:34:28.953Z,59.36
2023-07-19T09:36:57.418Z,60.56
2023-07-19T09:39:25.436Z,60.39
2023-07-19T09:41:54.130Z,59.68
2023-07-19T09:44:23.894Z,59.02
2023-07-19T09:46:52.225Z,59.15
2023-07-19T09:49:20.229Z,57.98
2023-07-19T09:51:49.909Z,57.72
2023-07-19T09:54:18.645Z,58.31
2023-07-19T09:56:46.776Z,57.73
2023-07-19T09:59:16.687Z,57.97
2023-07-19T10:01:46.362Z,58.65
2023-07-19T10:04:25.745Z,57.72
2023-07-19T10:07:05.005Z,58.44
2023-07-19T10:09:43.146Z,58.51
2023-07-19T10:12:25.654Z,56.81
2023-07-19T10:14:55.296Z,56.99
2023-07-19T10:17:25.810Z,57.36
2023-07-19T10:19:59.666Z,56.81
2023-07-19T10:22:54.032Z,56.00
2023-07-19T10:25:28.621Z,57.61
2023-07-19T10:28:05.434Z,56.95
2023-07-19T10:30:53.458Z,55.92
2023-07-19T10:33:24.265Z,55.60
2023-07-19T10:35:53.459Z,56.12
2023-07-19T10:38:24.037Z,56.30
2023-07-19T10:40:57.392Z,55.89
2023-07-19T10:43:44.956Z,56.30
2023-07-19T10:46:14.676Z,56.11
2023-07-19T10:48:44.414Z,56.41
2023-07-19T10:51:12.580Z,56.43
2023-07-19T10:53:46.124Z,55.96
2023-07-19T10:56:15.376Z,55.77
2023-07-19T10:58:43.999Z,56.28
2023-07-19T11:01:13.493Z,55.95
2023-07-19T11:03:44.090Z,54.58
2023-07-19T11:06:13.711Z,54.55
2023-07-19T11:08:42.181Z,53.97
2023-07-19T11:11:13.967Z,54.29
2023-07-19T11:13:42.076Z,53.91
2023-07-19T11:16:10.140Z,55.00
2023-07-19T11:18:39.619Z,53.67
2023-07-19T11:21:08.726Z,53.28
2023-07-19T11:23:42.595Z,53.34
2023-07-19T11:26:13.131Z,52.21
2023-07-19T11:28:45.545Z,53.23
2023-07-19T11:31:29.087Z,52.75
2023-07-19T11:34:02.682Z,52.15
2023-07-19T11:36:31.185Z,52.36
2023-07-19T11:39:00.577Z,51.94
2023-07-19T11:41:32.037Z,51.33
2023-07-19T11:44:00.110Z,50.95
2023-07-19T11:46:28.136Z,51.13
2023-07-19T11:48:56.143Z,51.19
2023-07-19T11:51:24.604Z,51.43
2023-07-19T11:53:52.787Z,51.20
2023-07-19T11:56:22.118Z,52.13
2023-07-19T11:58:50.461Z,52.23
2023-07-19T12:01:20.344Z,51.94
2023-07-19T12:03:48.679Z,52.73
2023-07-19T12:06:16.815Z,52.63
2023-07-19T12:08:45.407Z,52.80
2023-07-19T12:11:14.081Z,53.00
2023-07-19T12:13:43.376Z,52.53
2023-07-19T12:16:11.401Z,53.37
2023-07-19T12:18:40.197Z,53.43
2023-07-19T12:21:08.267Z,53.62
2023-07-19T12:23:40.634Z,54.06
2023-07-19T12:26:10.316Z,53.46
2023-07-19T12:28:38.661Z,53.27
2023-07-19T12:31:09.293Z,53.36
2023-07-19T12:33:37.323Z,53.07
2023-07-19T12:36:05.932Z,53.48
2023-07-19T12:38:35.084Z,53.41
2023-07-19T12:41:03.153Z,53.43
2023-07-19T12:43:31.109Z,53.93
2023-07-19T12:45:59.433Z,52.86
2023-07-19T12:48:28.727Z,53.32
2023-07-19T12:50:56.909Z,53.65
2023-07-19T12:53:25.502Z,53.54
2023-07-19T12:55:54.970Z,53.75
2023-07-19T12:58:24.202Z,52.40
2023-07-19T13:00:52.436Z,52.29
2023-07-19T13:03:21.700Z,52.12
2023-07-19T13:05:51.338Z,52.61
2023-07-19T13:08:19.436Z,52.31
2023-07-19T13:10:47.428Z,51.97
2023-07-19T13:13:16.951Z,50.88
2023-07-19T13:15:45.085Z,51.08
2023-07-19T13:18:13.047Z,50.97
2023-07-19T13:20:41.080Z,51.54
2023-07-19T13:23:11.933Z,52.00
2023-07-19T13:25:40.407Z,51.38
2023-07-19T13:28:08.793Z,50.99
2023-07-19T13:30:38.859Z,50.72
2023-07-19T13:33:07.111Z,50.24
2023-07-19T13:38:07.397Z,50.14
2023-07-19T13:40:36.984Z,50.87
2023-07-19T13:43:05.004Z,50.86
2023-07-19T13:45:35.181Z,49.93
2023-07-19T13:48:03.340Z,48.87
2023-07-19T13:50:31.319Z,48.94
2023-07-19T13:53:01.284Z,49.05
2023-07-19T13:55:29.348Z,48.25
2023-07-19T13:57:58.735Z,47.99
2023-07-19T14:00:26.764Z,47.25
2023-07-19T14:02:55.053Z,45.99
2023-07-19T14:05:23.994Z,45.98
2023-07-19T14:07:54.726Z,46.35
2023-07-19T14:10:22.861Z,45.41
2023-07-19T14:12:59.419Z,45.32
2023-07-19T14:15:29.653Z,44.47
2023-07-19T14:17:57.615Z,44.94
2023-07-19T14:20:26.932Z,43.99
2023-07-19T14:22:55.353Z,44.17
2023-07-19T14:25:23.570Z,42.86
2023-07-19T14:27:51.567Z,42.86
2023-07-19T14:30:20.268Z,42.22
2023-07-19T14:32:49.639Z,40.73
2023-07-19T14:35:17.678Z,39.59
2023-07-19T14:37:45.825Z,39.84
2023-07-19T14:40:15.424Z,38.51
2023-07-19T14:42:44.703Z,38.65
2023-07-19T14:45:12.681Z,38.86
2023-07-19T14:47:40.660Z,37.92
2023-07-19T14:50:11.182Z,36.28
2023-07-19T14:52:42.685Z,35.74
2023-07-19T14:55:11.197Z,35.40
2023-07-19T14:57:39.165Z,35.38
2023-07-19T15:00:13.309Z,34.67
2023-07-19T15:02:42.466Z,35.34
2023-07-19T15:05:12.464Z,33.84
2023-07-19T15:07:44.666Z,34.60
2023-07-19T15:10:13.227Z,34.77
2023-07-19T15:12:43.952Z,33.75
2023-07-19T15:15:13.155Z,33.39
2023-07-19T15:17:42.493Z,33.33
2023-07-19T15:20:12.980Z,31.89
2023-07-19T15:22:42.147Z,33.14
2023-07-19T15:25:10.727Z,33.82
2023-07-19T15:27:38.869Z,33.70
2023-07-19T15:30:08.491Z,32.35
2023-07-19T15:32:36.585Z,32.42
2023-07-19T15:35:04.910Z,32.42
2023-07-19T15:37:34.231Z,31.32
2023-07-19T15:40:02.276Z,32.17
2023-07-19T15:42:30.504Z,32.19
2023-07-19T15:44:58.502Z,32.55
2023-07-19T15:47:26.931Z,33.57
2023-07-19T15:49:54.912Z,32.05
2023-07-19T15:52:22.884Z,32.44
2023-07-19T15:54:52.347Z,31.07
2023-07-19T15:57:20.373Z,32.34
2023-07-19T15:59:48.335Z,32.05
2023-07-19T16:02:17.995Z,32.70
2023-07-19T16:04:46.046Z,32.66
2023-07-19T16:07:14.675Z,32.75
2023-07-19T16:09:42.770Z,33.23
2023-07-19T16:12:12.547Z,32.24
2023-07-19T16:14:40.507Z,32.71
2023-07-19T16:17:08.428Z,33.04
2023-07-19T16:19:36.356Z,32.66
2023-07-19T16:22:04.317Z,32.84
2023-07-19T16:24:32.378Z,33.38
2023-07-19T16:27:00.376Z,33.31
2023-07-19T16:29:29.752Z,32.73
2023-07-19T16:31:57.793Z,33.84
2023-07-19T16:34:25.743Z,33.47
2023-07-19T16:36:53.713Z,33.46
2023-07-19T16:39:21.854Z,33.65
2023-07-19T16:41:49.918Z,33.73
2023-07-19T16:44:18.268Z,33.50
2023-07-19T16:46:47.616Z,33.13
2023-07-19T16:49:15.689Z,33.06
2023-07-19T16:51:43.675Z,32.89
2023-07-19T16:54:11.615Z,32.99
2023-07-19T16:56:39.558Z,32.87
2023-07-19T16:59:07.487Z,32.50
2023-07-19T17:01:35.606Z,32.18
2023-07-19T17:04:05.493Z,30.84
2023-07-19T17:06:33.449Z,32.10
2023-07-19T17:09:01.433Z,31.94
2023-07-19T17:11:29.450Z,31.98
2023-07-19T17:13:57.410Z,31.93
2023-07-19T17:16:25.434Z,32.00
2023-07-19T17:19:05.819Z,31.99
2023-07-19T17:21:45.574Z,32.00
2023-07-19T17:24:13.972Z,31.64
2023-07-19T17:26:42.013Z,31.43
2023-07-19T17:29:10.000Z,31.81
2023-07-19T17:31:38.132Z,31.72
2023-07-19T17:34:06.179Z,31.88
2023-07-19T17:36:34.204Z,31.71
2023-07-19T17:39:03.562Z,32.34
2023-07-19T17:41:31.750Z,32.11
2023-07-19T17:44:00.478Z,32.42
2023-07-19T17:46:28.521Z,31.78
2023-07-19T17:48:56.442Z,32.03
2023-07-19T17:51:24.584Z,31.87
2023-07-19T17:53:52.706Z,32.06
2023-07-19T17:56:22.068Z,32.25
2023-07-19T17:58:51.291Z,32.07
2023-07-19T18:01:21.227Z,32.09
2023-07-19T18:03:50.625Z,32.08
2023-07-19T18:06:19.176Z,32.10
2023-07-19T18:08:47.252Z,32.23
2023-07-19T18:11:15.398Z,32.05
2023-07-19T18:13:44.776Z,32.39
2023-07-19T18:16:12.768Z,31.55
2023-07-19T18:18:40.725Z,31.59
2023-07-19T18:21:08.714Z,31.43
2023-07-19T18:23:38.380Z,32.02
2023-07-19T18:26:07.970Z,31.82
2023-07-19T18:28:37.416Z,32.31
2023-07-19T18:31:06.862Z,32.06
2023-07-19T18:33:34.961Z,32.46
2023-07-19T18:36:02.969Z,32.64
2023-07-19T18:38:30.964Z,32.65
2023-07-19T18:40:59.316Z,32.48
2023-07-19T18:43:27.667Z,32.14
2023-07-19T18:45:55.704Z,31.73
2023-07-19T18:48:25.276Z,30.73
2023-07-19T18:50:53.280Z,30.46
2023-07-19T18:53:23.122Z,30.80
2023-07-19T18:55:51.328Z,31.74
2023-07-19T18:58:19.825Z,32.74
2023-07-19T19:00:49.262Z,34.38
2023-07-19T19:03:17.537Z,35.15
2023-07-19T19:05:47.714Z,35.63
2023-07-19T19:08:17.355Z,35.61
2023-07-19T19:10:45.402Z,36.82
2023-07-19T19:13:13.638Z,37.08
2023-07-19T19:15:41.641Z,38.68
2023-07-19T19:18:09.851Z,38.92
2023-07-19T19:20:37.913Z,38.33
2023-07-19T19:23:08.064Z,39.49
2023-07-19T19:25:36.311Z,39.20
2023-07-19T19:28:04.598Z,39.31
2023-07-19T19:30:32.690Z,39.24
2023-07-19T19:33:00.802Z,39.64
2023-07-19T19:35:29.344Z,39.36
2023-07-19T19:37:57.323Z,39.40
2023-07-19T19:40:27.409Z,38.98
2023-07-19T19:42:55.407Z,38.59
2023-07-19T19:45:23.386Z,39.42
2023-07-19T19:47:51.384Z,39.42
2023-07-19T19:50:19.354Z,39.23
2023-07-19T19:52:59.085Z,40.16
2023-07-19T19:58:03.897Z,40.42
2023-07-19T20:00:31.852Z,40.64
2023-07-19T20:08:01.710Z,41.17
2023-07-19T20:10:29.891Z,41.68
2023-07-19T20:12:59.665Z,42.03
2023-07-19T20:15:27.833Z,42.30
2023-07-19T20:18:19.423Z,41.98
2023-07-19T20:20:43.830Z,42.39
2023-07-19T20:23:13.370Z,42.79
2023-07-19T20:25:47.865Z,43.21
2023-07-19T20:28:30.830Z,42.93
2023-07-19T20:31:05.852Z,42.58
2023-07-19T20:33:34.955Z,41.97
2023-07-19T20:36:05.865Z,42.52
2023-07-19T20:43:37.482Z,42.99
2023-07-19T20:46:07.609Z,43.23
2023-07-19T20:48:38.349Z,43.85
2023-07-19T20:51:10.903Z,43.96
2023-07-19T20:53:39.346Z,43.97
2023-07-19T20:56:07.930Z,43.89
2023-07-19T20:58:37.395Z,44.09
2023-07-19T21:01:05.811Z,44.17
2023-07-19T21:03:34.338Z,44.18
2023-07-19T21:06:03.441Z,44.25
2023-07-19T21:08:31.479Z,45.20
2023-07-19T21:10:59.474Z,45.08
2023-07-19T21:13:27.704Z,45.13
2023-07-19T21:15:57.124Z,45.35
2023-07-19T21:18:25.131Z,45.58
2023-07-19T21:20:53.082Z,45.92
2023-07-19T21:23:21.118Z,45.87
2023-07-19T21:25:49.470Z,46.44
2023-07-19T21:28:17.662Z,46.63
2023-07-19T21:30:45.677Z,46.77
2023-07-19T21:33:15.434Z,46.80
2023-07-19T21:35:43.448Z,46.97
2023-07-19T21:38:11.485Z,46.52
2023-07-19T21:40:39.614Z,46.94
2023-07-19T21:43:08.237Z,46.72
2023-07-19T21:45:36.772Z,46.83
2023-07-19T21:48:06.000Z,47.21
2023-07-19T21:50:35.523Z,47.24
2023-07-19T21:53:03.631Z,47.30
2023-07-19T21:55:31.801Z,47.37
2023-07-19T21:58:00.160Z,47.48
2023-07-19T22:00:41.596Z,48.20
2023-07-19T22:03:12.022Z,47.82
2023-07-19T22:05:42.055Z,47.77
2023-07-19T22:08:10.172Z,48.05
2023-07-19T22:10:38.490Z,47.90
2023-07-19T22:13:08.363Z,48.01
2023-07-19T22:15:36.874Z,48.21
2023-07-19T22:18:18.544Z,48.41
2023-07-19T22:20:50.111Z,48.28
2023-07-19T22:23:19.245Z,47.80
2023-07-19T22:25:49.423Z,48.03
2023-07-19T22:28:30.216Z,48.51
2023-07-19T22:30:58.495Z,48.28
2023-07-19T22:33:26.490Z,48.28
2023-07-19T22:35:55.875Z,48.47
2023-07-19T22:38:23.989Z,48.33
2023-07-19T22:40:51.966Z,47.91
2023-07-19T22:43:19.902Z,48.41
2023-07-19T22:45:47.881Z,48.77
2023-07-19T22:48:15.889Z,48.54
2023-07-19T22:50:43.848Z,48.53
2023-07-19T22:53:14.097Z,48.34
2023-07-19T22:55:42.109Z,48.73
2023-07-19T22:58:10.226Z,48.34
2023-07-19T23:00:38.215Z,48.83
2023-07-19T23:03:06.340Z,49.12
2023-07-19T23:05:37.330Z,49.29
2023-07-19T23:08:05.848Z,49.10
2023-07-19T23:10:35.329Z,49.41
2023-07-19T23:13:03.299Z,50.86
2023-07-19T23:15:31.351Z,52.57
2023-07-19T23:18:00.151Z,51.78
2023-07-19T23:20:28.225Z,51.48
2023-07-19T23:22:57.176Z,50.61
2023-07-19T23:25:25.285Z,50.63
2023-07-19T23:27:55.189Z,50.44
2023-07-19T23:30:23.381Z,50.25
2023-07-19T23:32:52.014Z,50.29
2023-07-19T23:35:20.254Z,50.51
2023-07-19T23:37:48.212Z,50.48
2023-07-19T23:40:16.327Z,50.91
2023-07-19T23:42:44.420Z,50.75
2023-07-19T23:45:13.784Z,51.03
2023-07-19T23:47:41.915Z,50.98
2023-07-19T23:50:10.418Z,50.82
2023-07-19T23:52:38.422Z,51.14
2023-07-19T23:55:07.649Z,50.85
2023-07-19T23:57:35.709Z,51.24
